sensor_id;sensor_type;location;lat;lon;timestamp;P1;durP1;ratioP1;P2;durP2;ratioP2
42944;SDS011;28584;42.636;23.294;2022-08-04T00:00:25;6.65;;;5.65;;
42944;SDS011;28584;42.636;23.294;2022-08-04T00:02:55;8.63;;;7.18;;
42944;SDS011;28584;42.636;23.294;2022-08-04T00:11:01;7.50;;;6.65;;
42944;SDS011;28584;42.636;23.294;2022-08-04T00:13:30;8.45;;;7.65;;
42944;SDS011;28584;42.636;23.294;2022-08-04T00:15:57;9.50;;;6.50;;
42944;SDS011;28584;42.636;23.294;2022-08-04T00:18:26;5.05;;;4.65;;
42944;SDS011;28584;42.636;23.294;2022-08-04T00:20:58;6.65;;;5.40;;
42944;SDS011;28584;42.636;23.294;2022-08-04T00:23:28;5.88;;;4.63;;
42944;SDS011;28584;42.636;23.294;2022-08-04T00:25:58;4.65;;;4.25;;
42944;SDS011;28584;42.636;23.294;2022-08-04T00:28:24;4.38;;;3.97;;
42944;SDS011;28584;42.636;23.294;2022-08-04T00:30:50;4.00;;;3.70;;
42944;SDS011;28584;42.636;23.294;2022-08-04T00:33:18;4.90;;;3.83;;
42944;SDS011;28584;42.636;23.294;2022-08-04T00:35:45;3.67;;;3.38;;
42944;SDS011;28584;42.636;23.294;2022-08-04T00:38:12;5.88;;;3.55;;
42944;SDS011;28584;42.636;23.294;2022-08-04T00:40:43;4.43;;;3.58;;
42944;SDS011;28584;42.636;23.294;2022-08-04T00:43:23;4.22;;;3.45;;
42944;SDS011;28584;42.636;23.294;2022-08-04T00:48:49;4.35;;;3.42;;
42944;SDS011;28584;42.636;23.294;2022-08-04T00:59:30;4.55;;;4.18;;
42944;SDS011;28584;42.636;23.294;2022-08-04T01:10:03;5.82;;;5.05;;
42944;SDS011;28584;42.636;23.294;2022-08-04T01:15:43;6.30;;;4.93;;
42944;SDS011;28584;42.636;23.294;2022-08-04T01:29:09;7.32;;;6.63;;
42944;SDS011;28584;42.636;23.294;2022-08-04T01:34:21;5.15;;;4.70;;
42944;SDS011;28584;42.636;23.294;2022-08-04T01:37:30;5.13;;;4.72;;
42944;SDS011;28584;42.636;23.294;2022-08-04T01:39:53;5.47;;;4.97;;
42944;SDS011;28584;42.636;23.294;2022-08-04T01:42:30;4.70;;;4.30;;
42944;SDS011;28584;42.636;23.294;2022-08-04T01:45:02;4.70;;;4.30;;
42944;SDS011;28584;42.636;23.294;2022-08-04T01:47:29;4.85;;;4.45;;
42944;SDS011;28584;42.636;23.294;2022-08-04T01:50:02;5.10;;;4.60;;
42944;SDS011;28584;42.636;23.294;2022-08-04T01:52:39;4.07;;;3.78;;
42944;SDS011;28584;42.636;23.294;2022-08-04T01:55:07;5.35;;;4.18;;
42944;SDS011;28584;42.636;23.294;2022-08-04T01:57:55;5.22;;;4.45;;
42944;SDS011;28584;42.636;23.294;2022-08-04T02:00:23;5.40;;;4.65;;
42944;SDS011;28584;42.636;23.294;2022-08-04T02:02:51;7.30;;;6.60;;
42944;SDS011;28584;42.636;23.294;2022-08-04T02:05:18;9.20;;;8.25;;
42944;SDS011;28584;42.636;23.294;2022-08-04T02:07:48;7.05;;;5.70;;
42944;SDS011;28584;42.636;23.294;2022-08-04T02:21:56;6.40;;;5.80;;
42944;SDS011;28584;42.636;23.294;2022-08-04T02:24:44;5.78;;;5.28;;
42944;SDS011;28584;42.636;23.294;2022-08-04T02:27:13;5.57;;;5.05;;
42944;SDS011;28584;42.636;23.294;2022-08-04T02:29:47;5.13;;;4.68;;
42944;SDS011;28584;42.636;23.294;2022-08-04T02:32:26;4.93;;;4.43;;
42944;SDS011;28584;42.636;23.294;2022-08-04T02:35:07;5.28;;;4.80;;
42944;SDS011;28584;42.636;23.294;2022-08-04T02:37:35;4.95;;;4.45;;
42944;SDS011;28584;42.636;23.294;2022-08-04T02:40:03;6.93;;;4.55;;
42944;SDS011;28584;42.636;23.294;2022-08-04T02:42:31;5.10;;;4.70;;
42944;SDS011;28584;42.636;23.294;2022-08-04T02:44:58;4.72;;;4.32;;
42944;SDS011;28584;42.636;23.294;2022-08-04T02:47:25;4.30;;;3.90;;
42944;SDS011;28584;42.636;23.294;2022-08-04T02:49:52;4.93;;;4.35;;
42944;SDS011;28584;42.636;23.294;2022-08-04T02:52:18;6.25;;;5.32;;
42944;SDS011;28584;42.636;23.294;2022-08-04T02:54:44;6.47;;;5.97;;
42944;SDS011;28584;42.636;23.294;2022-08-04T02:57:13;5.78;;;5.18;;
42944;SDS011;28584;42.636;23.294;2022-08-04T03:02:10;4.90;;;4.50;;
42944;SDS011;28584;42.636;23.294;2022-08-04T03:24:15;5.05;;;4.57;;
42944;SDS011;28584;42.636;23.294;2022-08-04T03:29:40;4.53;;;4.13;;
42944;SDS011;28584;42.636;23.294;2022-08-04T03:48:51;4.93;;;4.20;;
42944;SDS011;28584;42.636;23.294;2022-08-04T03:57:25;3.85;;;3.55;;
42944;SDS011;28584;42.636;23.294;2022-08-04T04:00:18;9.02;;;8.07;;
42944;SDS011;28584;42.636;23.294;2022-08-04T04:05:38;7.28;;;6.53;;
42944;SDS011;28584;42.636;23.294;2022-08-04T04:24:34;4.97;;;3.92;;
42944;SDS011;28584;42.636;23.294;2022-08-04T04:27:08;4.93;;;4.22;;
42944;SDS011;28584;42.636;23.294;2022-08-04T04:29:59;6.13;;;4.80;;
42944;SDS011;28584;42.636;23.294;2022-08-04T04:55:11;5.88;;;4.00;;
42944;SDS011;28584;42.636;23.294;2022-08-04T04:57:42;5.57;;;4.97;;
42944;SDS011;28584;42.636;23.294;2022-08-04T05:00:10;12.02;;;6.00;;
42944;SDS011;28584;42.636;23.294;2022-08-04T05:13:49;6.65;;;4.30;;
42944;SDS011;28584;42.636;23.294;2022-08-04T05:16:32;9.95;;;5.53;;
42944;SDS011;28584;42.636;23.294;2022-08-04T05:21:59;14.05;;;7.90;;
42944;SDS011;28584;42.636;23.294;2022-08-04T05:24:29;10.70;;;8.90;;
42944;SDS011;28584;42.636;23.294;2022-08-04T05:27:01;12.98;;;9.00;;
42944;SDS011;28584;42.636;23.294;2022-08-04T05:29:33;17.13;;;9.40;;
42944;SDS011;28584;42.636;23.294;2022-08-04T05:32:03;16.45;;;9.55;;
42944;SDS011;28584;42.636;23.294;2022-08-04T05:34:34;14.25;;;9.45;;
42944;SDS011;28584;42.636;23.294;2022-08-04T05:37:09;11.65;;;9.00;;
42944;SDS011;28584;42.636;23.294;2022-08-04T05:39:43;11.05;;;8.05;;
42944;SDS011;28584;42.636;23.294;2022-08-04T05:42:11;9.50;;;7.80;;
42944;SDS011;28584;42.636;23.294;2022-08-04T05:44:38;11.30;;;7.43;;
42944;SDS011;28584;42.636;23.294;2022-08-04T05:47:06;15.05;;;8.43;;
42944;SDS011;28584;42.636;23.294;2022-08-04T05:49:33;12.63;;;7.20;;
42944;SDS011;28584;42.636;23.294;2022-08-04T05:52:00;12.23;;;7.57;;
42944;SDS011;28584;42.636;23.294;2022-08-04T05:54:27;9.77;;;8.25;;
42944;SDS011;28584;42.636;23.294;2022-08-04T05:56:55;8.15;;;7.22;;
42944;SDS011;28584;42.636;23.294;2022-08-04T05:59:21;8.20;;;7.07;;
42944;SDS011;28584;42.636;23.294;2022-08-04T06:01:52;10.45;;;7.18;;
42944;SDS011;28584;42.636;23.294;2022-08-04T06:04:21;10.23;;;6.75;;
42944;SDS011;28584;42.636;23.294;2022-08-04T06:06:48;9.75;;;8.15;;
42944;SDS011;28584;42.636;23.294;2022-08-04T06:09:14;10.20;;;8.45;;
42944;SDS011;28584;42.636;23.294;2022-08-04T06:11:40;12.10;;;8.27;;
42944;SDS011;28584;42.636;23.294;2022-08-04T06:14:08;9.98;;;8.63;;
42944;SDS011;28584;42.636;23.294;2022-08-04T06:16:39;13.50;;;9.82;;
42944;SDS011;28584;42.636;23.294;2022-08-04T06:19:08;9.43;;;8.48;;
42944;SDS011;28584;42.636;23.294;2022-08-04T06:21:37;13.13;;;10.35;;
42944;SDS011;28584;42.636;23.294;2022-08-04T06:24:08;10.88;;;9.77;;
42944;SDS011;28584;42.636;23.294;2022-08-04T06:26:35;11.85;;;9.70;;
42944;SDS011;28584;42.636;23.294;2022-08-04T06:29:04;11.23;;;9.25;;
42944;SDS011;28584;42.636;23.294;2022-08-04T06:31:35;12.55;;;9.93;;
42944;SDS011;28584;42.636;23.294;2022-08-04T06:34:10;13.40;;;10.13;;
42944;SDS011;28584;42.636;23.294;2022-08-04T06:36:39;13.80;;;10.07;;
42944;SDS011;28584;42.636;23.294;2022-08-04T06:39:06;13.93;;;10.27;;
42944;SDS011;28584;42.636;23.294;2022-08-04T06:41:33;13.90;;;9.73;;
42944;SDS011;28584;42.636;23.294;2022-08-04T06:44:00;13.25;;;9.77;;
42944;SDS011;28584;42.636;23.294;2022-08-04T06:46:29;13.85;;;9.85;;
42944;SDS011;28584;42.636;23.294;2022-08-04T06:48:56;14.48;;;10.82;;
42944;SDS011;28584;42.636;23.294;2022-08-04T06:51:22;14.30;;;11.57;;
42944;SDS011;28584;42.636;23.294;2022-08-04T06:53:48;15.23;;;10.55;;
42944;SDS011;28584;42.636;23.294;2022-08-04T06:56:15;14.40;;;11.82;;
42944;SDS011;28584;42.636;23.294;2022-08-04T06:58:49;20.77;;;12.00;;
42944;SDS011;28584;42.636;23.294;2022-08-04T07:01:20;19.02;;;13.98;;
42944;SDS011;28584;42.636;23.294;2022-08-04T07:03:47;15.23;;;12.00;;
42944;SDS011;28584;42.636;23.294;2022-08-04T07:06:13;19.40;;;11.50;;
42944;SDS011;28584;42.636;23.294;2022-08-04T07:08:39;21.48;;;12.52;;
42944;SDS011;28584;42.636;23.294;2022-08-04T07:11:04;15.77;;;12.40;;
42944;SDS011;28584;42.636;23.294;2022-08-04T07:13:31;18.33;;;12.88;;
42944;SDS011;28584;42.636;23.294;2022-08-04T07:15:57;14.55;;;11.73;;
42944;SDS011;28584;42.636;23.294;2022-08-04T07:18:24;13.93;;;10.40;;
42944;SDS011;28584;42.636;23.294;2022-08-04T07:20:49;16.05;;;11.30;;
42944;SDS011;28584;42.636;23.294;2022-08-04T07:23:17;14.60;;;10.63;;
42944;SDS011;28584;42.636;23.294;2022-08-04T07:25:51;18.52;;;11.73;;
42944;SDS011;28584;42.636;23.294;2022-08-04T07:28:22;16.83;;;12.43;;
42944;SDS011;28584;42.636;23.294;2022-08-04T07:30:49;14.77;;;11.55;;
42944;SDS011;28584;42.636;23.294;2022-08-04T07:33:17;14.65;;;11.55;;
42944;SDS011;28584;42.636;23.294;2022-08-04T07:35:43;16.42;;;11.93;;
42944;SDS011;28584;42.636;23.294;2022-08-04T07:38:10;16.17;;;12.35;;
42944;SDS011;28584;42.636;23.294;2022-08-04T07:40:36;14.25;;;11.82;;
42944;SDS011;28584;42.636;23.294;2022-08-04T07:43:02;15.55;;;13.02;;
42944;SDS011;28584;42.636;23.294;2022-08-04T07:45:28;18.52;;;12.00;;
42944;SDS011;28584;42.636;23.294;2022-08-04T07:47:54;16.48;;;11.63;;
42944;SDS011;28584;42.636;23.294;2022-08-04T07:50:20;17.45;;;11.13;;
42944;SDS011;28584;42.636;23.294;2022-08-04T07:52:46;15.45;;;11.52;;
42944;SDS011;28584;42.636;23.294;2022-08-04T07:55:13;16.30;;;12.18;;
42944;SDS011;28584;42.636;23.294;2022-08-04T07:57:39;13.20;;;10.63;;
42944;SDS011;28584;42.636;23.294;2022-08-04T08:00:05;13.52;;;11.90;;
42944;SDS011;28584;42.636;23.294;2022-08-04T08:02:32;12.57;;;10.95;;
42944;SDS011;28584;42.636;23.294;2022-08-04T08:04:59;14.77;;;11.60;;
42944;SDS011;28584;42.636;23.294;2022-08-04T08:07:25;11.43;;;10.23;;
42944;SDS011;28584;42.636;23.294;2022-08-04T08:09:51;13.13;;;9.93;;
42944;SDS011;28584;42.636;23.294;2022-08-04T08:12:16;18.17;;;10.23;;
42944;SDS011;28584;42.636;23.294;2022-08-04T08:14:42;14.13;;;9.88;;
42944;SDS011;28584;42.636;23.294;2022-08-04T08:17:09;16.13;;;9.60;;
42944;SDS011;28584;42.636;23.294;2022-08-04T08:19:34;16.55;;;9.13;;
42944;SDS011;28584;42.636;23.294;2022-08-04T08:22:00;15.68;;;8.27;;
42944;SDS011;28584;42.636;23.294;2022-08-04T08:24:27;14.38;;;8.95;;
42944;SDS011;28584;42.636;23.294;2022-08-04T08:26:53;16.05;;;7.78;;
42944;SDS011;28584;42.636;23.294;2022-08-04T08:29:20;13.02;;;7.13;;
42944;SDS011;28584;42.636;23.294;2022-08-04T08:31:46;12.90;;;6.57;;
42944;SDS011;28584;42.636;23.294;2022-08-04T08:34:12;12.50;;;6.90;;
42944;SDS011;28584;42.636;23.294;2022-08-04T08:39:27;10.35;;;5.72;;
42944;SDS011;28584;42.636;23.294;2022-08-04T08:56:10;9.60;;;5.38;;
42944;SDS011;28584;42.636;23.294;2022-08-04T09:12:44;10.98;;;5.65;;
42944;SDS011;28584;42.636;23.294;2022-08-04T09:15:15;9.40;;;5.68;;
42944;SDS011;28584;42.636;23.294;2022-08-04T09:17:49;8.38;;;5.20;;
42944;SDS011;28584;42.636;23.294;2022-08-04T09:20:24;10.30;;;5.75;;
42944;SDS011;28584;42.636;23.294;2022-08-04T09:23:06;11.00;;;5.75;;
42944;SDS011;28584;42.636;23.294;2022-08-04T09:26:00;8.30;;;5.82;;
42944;SDS011;28584;42.636;23.294;2022-08-04T09:28:28;6.82;;;3.70;;
42944;SDS011;28584;42.636;23.294;2022-08-04T09:31:05;6.03;;;3.45;;
42944;SDS011;28584;42.636;23.294;2022-08-04T09:36:03;10.02;;;4.32;;
42944;SDS011;28584;42.636;23.294;2022-08-04T09:41:42;13.10;;;3.40;;
42944;SDS011;28584;42.636;23.294;2022-08-04T09:44:26;6.60;;;3.22;;
42944;SDS011;28584;42.636;23.294;2022-08-04T09:50:03;3.42;;;2.60;;
42944;SDS011;28584;42.636;23.294;2022-08-04T09:58:21;6.00;;;3.00;;
42944;SDS011;28584;42.636;23.294;2022-08-04T10:00:57;5.25;;;3.13;;
42944;SDS011;28584;42.636;23.294;2022-08-04T10:03:26;6.05;;;2.90;;
42944;SDS011;28584;42.636;23.294;2022-08-04T10:14:36;4.38;;;3.00;;
42944;SDS011;28584;42.636;23.294;2022-08-04T10:17:25;3.83;;;2.97;;
42944;SDS011;28584;42.636;23.294;2022-08-04T10:20:29;2.92;;;2.72;;
42944;SDS011;28584;42.636;23.294;2022-08-04T10:25:52;3.78;;;2.88;;
42944;SDS011;28584;42.636;23.294;2022-08-04T10:28:21;4.03;;;2.75;;
42944;SDS011;28584;42.636;23.294;2022-08-04T10:30:50;3.30;;;2.53;;
42944;SDS011;28584;42.636;23.294;2022-08-04T10:33:32;5.00;;;3.00;;
42944;SDS011;28584;42.636;23.294;2022-08-04T10:36:07;4.75;;;3.15;;
42944;SDS011;28584;42.636;23.294;2022-08-04T10:38:36;3.40;;;2.75;;
42944;SDS011;28584;42.636;23.294;2022-08-04T10:41:32;3.95;;;2.63;;
42944;SDS011;28584;42.636;23.294;2022-08-04T10:44:05;4.28;;;2.42;;
42944;SDS011;28584;42.636;23.294;2022-08-04T10:46:56;3.10;;;2.50;;
42944;SDS011;28584;42.636;23.294;2022-08-04T10:49:36;5.35;;;2.95;;
42944;SDS011;28584;42.636;23.294;2022-08-04T10:52:13;4.10;;;2.78;;
42944;SDS011;28584;42.636;23.294;2022-08-04T10:57:41;3.42;;;2.50;;
42944;SDS011;28584;42.636;23.294;2022-08-04T11:00:27;2.47;;;2.13;;
42944;SDS011;28584;42.636;23.294;2022-08-04T11:03:00;3.17;;;2.30;;
42944;SDS011;28584;42.636;23.294;2022-08-04T11:05:42;2.70;;;2.13;;
42944;SDS011;28584;42.636;23.294;2022-08-04T11:10:50;2.40;;;2.03;;
42944;SDS011;28584;42.636;23.294;2022-08-04T11:13:16;2.30;;;2.10;;
42944;SDS011;28584;42.636;23.294;2022-08-04T11:15:47;3.28;;;2.30;;
42944;SDS011;28584;42.636;23.294;2022-08-04T11:18:41;3.35;;;2.15;;
42944;SDS011;28584;42.636;23.294;2022-08-04T11:21:31;2.45;;;2.25;;
42944;SDS011;28584;42.636;23.294;2022-08-04T11:24:02;4.38;;;2.33;;
42944;SDS011;28584;42.636;23.294;2022-08-04T11:26:37;3.92;;;2.70;;
42944;SDS011;28584;42.636;23.294;2022-08-04T11:31:46;2.85;;;2.28;;
42944;SDS011;28584;42.636;23.294;2022-08-04T11:39:52;4.82;;;2.80;;
42944;SDS011;28584;42.636;23.294;2022-08-04T11:42:30;5.30;;;2.92;;
42944;SDS011;28584;42.636;23.294;2022-08-04T11:45:02;3.28;;;2.63;;
42944;SDS011;28584;42.636;23.294;2022-08-04T11:47:32;2.95;;;2.72;;
42944;SDS011;28584;42.636;23.294;2022-08-04T11:50:05;4.65;;;3.08;;
42944;SDS011;28584;42.636;23.294;2022-08-04T11:52:37;3.13;;;2.58;;
42944;SDS011;28584;42.636;23.294;2022-08-04T11:55:06;3.60;;;2.67;;
42944;SDS011;28584;42.636;23.294;2022-08-04T11:57:35;4.28;;;2.80;;
42944;SDS011;28584;42.636;23.294;2022-08-04T12:00:02;3.90;;;3.15;;
42944;SDS011;28584;42.636;23.294;2022-08-04T12:06:05;2.78;;;2.58;;
42944;SDS011;28584;42.636;23.294;2022-08-04T12:08:17;3.65;;;3.35;;
42944;SDS011;28584;42.636;23.294;2022-08-04T12:11:15;5.00;;;3.03;;
42944;SDS011;28584;42.636;23.294;2022-08-04T12:13:45;4.32;;;3.00;;
42944;SDS011;28584;42.636;23.294;2022-08-04T12:16:24;3.78;;;2.63;;
42944;SDS011;28584;42.636;23.294;2022-08-04T12:18:57;4.53;;;3.00;;
42944;SDS011;28584;42.636;23.294;2022-08-04T12:24:07;3.47;;;3.17;;
42944;SDS011;28584;42.636;23.294;2022-08-04T12:26:42;4.90;;;3.10;;
42944;SDS011;28584;42.636;23.294;2022-08-04T12:29:14;3.50;;;2.63;;
42944;SDS011;28584;42.636;23.294;2022-08-04T12:31:52;3.22;;;2.90;;
42944;SDS011;28584;42.636;23.294;2022-08-04T12:39:34;6.63;;;3.15;;
42944;SDS011;28584;42.636;23.294;2022-08-04T12:42:10;5.10;;;3.00;;
42944;SDS011;28584;42.636;23.294;2022-08-04T12:44:42;5.72;;;3.15;;
42944;SDS011;28584;42.636;23.294;2022-08-04T12:47:12;4.05;;;3.25;;
42944;SDS011;28584;42.636;23.294;2022-08-04T12:49:40;3.58;;;2.70;;
42944;SDS011;28584;42.636;23.294;2022-08-04T12:52:11;3.13;;;2.78;;
42944;SDS011;28584;42.636;23.294;2022-08-04T12:54:39;4.47;;;3.00;;
42944;SDS011;28584;42.636;23.294;2022-08-04T12:57:08;5.15;;;2.55;;
42944;SDS011;28584;42.636;23.294;2022-08-04T12:59:38;3.08;;;2.53;;
42944;SDS011;28584;42.636;23.294;2022-08-04T13:02:15;3.25;;;2.95;;
42944;SDS011;28584;42.636;23.294;2022-08-04T13:04:47;2.70;;;2.50;;
42944;SDS011;28584;42.636;23.294;2022-08-04T13:07:17;3.78;;;2.80;;
42944;SDS011;28584;42.636;23.294;2022-08-04T13:09:45;5.82;;;3.17;;
42944;SDS011;28584;42.636;23.294;2022-08-04T13:12:18;4.40;;;2.75;;
42944;SDS011;28584;42.636;23.294;2022-08-04T13:14:49;3.10;;;2.80;;
42944;SDS011;28584;42.636;23.294;2022-08-04T13:17:16;2.78;;;2.45;;
42944;SDS011;28584;42.636;23.294;2022-08-04T13:19:46;2.83;;;2.40;;
42944;SDS011;28584;42.636;23.294;2022-08-04T13:22:25;4.78;;;3.10;;
42944;SDS011;28584;42.636;23.294;2022-08-04T13:24:52;2.97;;;2.78;;
42944;SDS011;28584;42.636;23.294;2022-08-04T13:27:22;3.30;;;3.00;;
42944;SDS011;28584;42.636;23.294;2022-08-04T13:29:49;2.80;;;2.60;;
42944;SDS011;28584;42.636;23.294;2022-08-04T13:32:19;3.25;;;2.65;;
42944;SDS011;28584;42.636;23.294;2022-08-04T13:34:48;8.00;;;2.95;;
42944;SDS011;28584;42.636;23.294;2022-08-04T13:37:16;6.30;;;2.80;;
42944;SDS011;28584;42.636;23.294;2022-08-04T13:39:44;2.85;;;2.65;;
42944;SDS011;28584;42.636;23.294;2022-08-04T13:42:12;3.65;;;2.88;;
42944;SDS011;28584;42.636;23.294;2022-08-04T13:44:39;7.47;;;2.90;;
42944;SDS011;28584;42.636;23.294;2022-08-04T13:47:13;4.72;;;3.13;;
42944;SDS011;28584;42.636;23.294;2022-08-04T13:50:04;3.17;;;2.88;;
42944;SDS011;28584;42.636;23.294;2022-08-04T13:52:40;4.63;;;2.83;;
42944;SDS011;28584;42.636;23.294;2022-08-04T13:55:06;2.90;;;2.70;;
42944;SDS011;28584;42.636;23.294;2022-08-04T13:57:35;3.13;;;2.60;;
42944;SDS011;28584;42.636;23.294;2022-08-04T14:00:09;2.90;;;2.60;;
42944;SDS011;28584;42.636;23.294;2022-08-04T14:05:23;3.35;;;2.72;;
42944;SDS011;28584;42.636;23.294;2022-08-04T14:08:07;2.60;;;2.40;;
42944;SDS011;28584;42.636;23.294;2022-08-04T14:10:36;2.72;;;2.53;;
42944;SDS011;28584;42.636;23.294;2022-08-04T14:13:02;5.47;;;2.70;;
42944;SDS011;28584;42.636;23.294;2022-08-04T14:18:17;3.15;;;2.90;;
42944;SDS011;28584;42.636;23.294;2022-08-04T14:23:23;3.13;;;2.92;;
42944;SDS011;28584;42.636;23.294;2022-08-04T14:25:49;5.15;;;4.35;;
42944;SDS011;28584;42.636;23.294;2022-08-04T14:28:25;7.03;;;4.90;;
42944;SDS011;28584;42.636;23.294;2022-08-04T14:33:37;3.00;;;2.70;;
42944;SDS011;28584;42.636;23.294;2022-08-04T14:36:04;5.55;;;2.70;;
42944;SDS011;28584;42.636;23.294;2022-08-04T14:38:43;5.00;;;2.67;;
42944;SDS011;28584;42.636;23.294;2022-08-04T14:41:18;2.67;;;2.47;;
42944;SDS011;28584;42.636;23.294;2022-08-04T14:43:54;7.00;;;2.97;;
42944;SDS011;28584;42.636;23.294;2022-08-04T14:46:23;3.42;;;2.80;;
42944;SDS011;28584;42.636;23.294;2022-08-04T14:54:23;5.28;;;2.58;;
42944;SDS011;28584;42.636;23.294;2022-08-04T14:56:51;2.95;;;2.75;;
42944;SDS011;28584;42.636;23.294;2022-08-04T14:59:19;3.67;;;2.85;;
42944;SDS011;28584;42.636;23.294;2022-08-04T15:01:45;3.10;;;2.80;;
42944;SDS011;28584;42.636;23.294;2022-08-04T15:04:13;5.38;;;2.67;;
42944;SDS011;28584;42.636;23.294;2022-08-04T15:06:39;5.90;;;2.90;;
42944;SDS011;28584;42.636;23.294;2022-08-04T15:09:07;6.15;;;3.40;;
42944;SDS011;28584;42.636;23.294;2022-08-04T15:11:35;3.25;;;2.85;;
42944;SDS011;28584;42.636;23.294;2022-08-04T15:14:01;3.25;;;3.05;;
42944;SDS011;28584;42.636;23.294;2022-08-04T15:16:29;5.45;;;3.30;;
42944;SDS011;28584;42.636;23.294;2022-08-04T15:18:56;3.55;;;3.25;;
42944;SDS011;28584;42.636;23.294;2022-08-04T15:21:22;4.95;;;3.30;;
42944;SDS011;28584;42.636;23.294;2022-08-04T15:23:52;3.17;;;2.97;;
42944;SDS011;28584;42.636;23.294;2022-08-04T15:26:33;3.05;;;2.85;;
42944;SDS011;28584;42.636;23.294;2022-08-04T15:29:07;4.18;;;3.20;;
42944;SDS011;28584;42.636;23.294;2022-08-04T15:31:39;3.95;;;3.20;;
42944;SDS011;28584;42.636;23.294;2022-08-04T15:34:06;4.50;;;3.15;;
42944;SDS011;28584;42.636;23.294;2022-08-04T15:36:34;4.68;;;3.10;;
42944;SDS011;28584;42.636;23.294;2022-08-04T15:47:09;2.78;;;2.58;;
42944;SDS011;28584;42.636;23.294;2022-08-04T15:49:36;3.47;;;3.17;;
42944;SDS011;28584;42.636;23.294;2022-08-04T15:52:05;3.22;;;2.83;;
42944;SDS011;28584;42.636;23.294;2022-08-04T15:54:35;3.58;;;3.28;;
42944;SDS011;28584;42.636;23.294;2022-08-04T15:57:02;3.90;;;3.47;;
42944;SDS011;28584;42.636;23.294;2022-08-04T16:02:35;4.72;;;3.50;;
42944;SDS011;28584;42.636;23.294;2022-08-04T16:07:53;4.22;;;3.30;;
42944;SDS011;28584;42.636;23.294;2022-08-04T16:12:56;14.50;;;9.80;;
42944;SDS011;28584;42.636;23.294;2022-08-04T16:20:49;8.98;;;7.18;;
42944;SDS011;28584;42.636;23.294;2022-08-04T16:23:27;6.35;;;5.38;;
42944;SDS011;28584;42.636;23.294;2022-08-04T16:26:12;4.45;;;4.05;;
42944;SDS011;28584;42.636;23.294;2022-08-04T16:28:38;4.68;;;3.67;;
42944;SDS011;28584;42.636;23.294;2022-08-04T16:31:05;5.30;;;4.20;;
42944;SDS011;28584;42.636;23.294;2022-08-04T16:33:33;5.75;;;5.18;;
42944;SDS011;28584;42.636;23.294;2022-08-04T16:35:59;6.18;;;4.82;;
42944;SDS011;28584;42.636;23.294;2022-08-04T16:38:25;5.68;;;4.40;;
42944;SDS011;28584;42.636;23.294;2022-08-04T16:40:55;5.47;;;4.20;;
42944;SDS011;28584;42.636;23.294;2022-08-04T16:43:22;6.50;;;4.60;;
42944;SDS011;28584;42.636;23.294;2022-08-04T16:46:01;7.10;;;4.38;;
42944;SDS011;28584;42.636;23.294;2022-08-04T16:48:31;6.13;;;4.75;;
42944;SDS011;28584;42.636;23.294;2022-08-04T16:53:51;6.43;;;4.95;;
42944;SDS011;28584;42.636;23.294;2022-08-04T16:56:17;5.38;;;4.07;;
42944;SDS011;28584;42.636;23.294;2022-08-04T16:58:46;3.83;;;3.53;;
42944;SDS011;28584;42.636;23.294;2022-08-04T17:01:14;4.97;;;3.40;;
42944;SDS011;28584;42.636;23.294;2022-08-04T17:03:48;4.57;;;3.85;;
42944;SDS011;28584;42.636;23.294;2022-08-04T17:06:15;4.53;;;3.63;;
42944;SDS011;28584;42.636;23.294;2022-08-04T17:08:42;5.57;;;3.67;;
42944;SDS011;28584;42.636;23.294;2022-08-04T17:11:09;4.03;;;3.63;;
42944;SDS011;28584;42.636;23.294;2022-08-04T17:13:37;4.28;;;3.30;;
42944;SDS011;28584;42.636;23.294;2022-08-04T17:16:05;5.25;;;3.67;;
42944;SDS011;28584;42.636;23.294;2022-08-04T17:18:33;4.32;;;3.60;;
42944;SDS011;28584;42.636;23.294;2022-08-04T17:21:03;7.88;;;4.05;;
42944;SDS011;28584;42.636;23.294;2022-08-04T17:26:18;3.92;;;3.53;;
42944;SDS011;28584;42.636;23.294;2022-08-04T17:28:45;4.25;;;3.85;;
42944;SDS011;28584;42.636;23.294;2022-08-04T17:31:12;4.30;;;3.70;;
42944;SDS011;28584;42.636;23.294;2022-08-04T17:33:39;4.47;;;3.60;;
42944;SDS011;28584;42.636;23.294;2022-08-04T17:36:08;4.10;;;3.80;;
42944;SDS011;28584;42.636;23.294;2022-08-04T17:38:39;4.00;;;3.47;;
42944;SDS011;28584;42.636;23.294;2022-08-04T17:41:08;3.95;;;3.65;;
42944;SDS011;28584;42.636;23.294;2022-08-04T17:48:42;5.53;;;3.88;;
42944;SDS011;28584;42.636;23.294;2022-08-04T17:51:14;4.43;;;4.00;;
42944;SDS011;28584;42.636;23.294;2022-08-04T17:53:41;6.18;;;4.13;;
42944;SDS011;28584;42.636;23.294;2022-08-04T17:56:26;5.55;;;4.20;;
42944;SDS011;28584;42.636;23.294;2022-08-04T17:59:10;5.90;;;4.97;;
42944;SDS011;28584;42.636;23.294;2022-08-04T18:01:42;8.80;;;5.90;;
42944;SDS011;28584;42.636;23.294;2022-08-04T18:07:10;24.77;;;18.20;;
42944;SDS011;28584;42.636;23.294;2022-08-04T18:09:38;26.88;;;19.77;;
42944;SDS011;28584;42.636;23.294;2022-08-04T18:12:07;23.70;;;18.42;;
42944;SDS011;28584;42.636;23.294;2022-08-04T18:14:44;21.90;;;15.82;;
42944;SDS011;28584;42.636;23.294;2022-08-04T18:17:12;9.10;;;7.80;;
42944;SDS011;28584;42.636;23.294;2022-08-04T18:19:48;9.30;;;6.40;;
42944;SDS011;28584;42.636;23.294;2022-08-04T18:22:15;5.78;;;5.07;;
42944;SDS011;28584;42.636;23.294;2022-08-04T18:24:41;6.93;;;4.97;;
42944;SDS011;28584;42.636;23.294;2022-08-04T18:27:07;20.30;;;12.10;;
42944;SDS011;28584;42.636;23.294;2022-08-04T18:29:35;9.23;;;6.68;;
42944;SDS011;28584;42.636;23.294;2022-08-04T18:32:01;7.82;;;5.07;;
42944;SDS011;28584;42.636;23.294;2022-08-04T18:34:27;5.70;;;4.53;;
42944;SDS011;28584;42.636;23.294;2022-08-04T18:36:52;8.30;;;4.40;;
42944;SDS011;28584;42.636;23.294;2022-08-04T18:39:19;5.57;;;4.30;;
42944;SDS011;28584;42.636;23.294;2022-08-04T18:41:48;8.20;;;5.72;;
42944;SDS011;28584;42.636;23.294;2022-08-04T18:44:14;4.88;;;4.38;;
42944;SDS011;28584;42.636;23.294;2022-08-04T18:46:39;8.20;;;4.15;;
42944;SDS011;28584;42.636;23.294;2022-08-04T18:49:05;5.18;;;4.43;;
42944;SDS011;28584;42.636;23.294;2022-08-04T18:51:31;4.45;;;4.03;;
42944;SDS011;28584;42.636;23.294;2022-08-04T18:53:56;5.68;;;4.20;;
42944;SDS011;28584;42.636;23.294;2022-08-04T18:56:22;6.00;;;4.32;;
42944;SDS011;28584;42.636;23.294;2022-08-04T18:58:47;4.75;;;4.30;;
42944;SDS011;28584;42.636;23.294;2022-08-04T19:01:13;4.50;;;4.18;;
42944;SDS011;28584;42.636;23.294;2022-08-04T19:03:39;5.72;;;4.38;;
42944;SDS011;28584;42.636;23.294;2022-08-04T19:06:05;5.47;;;4.30;;
42944;SDS011;28584;42.636;23.294;2022-08-04T19:08:31;5.22;;;4.07;;
42944;SDS011;28584;42.636;23.294;2022-08-04T19:10:57;7.63;;;4.13;;
42944;SDS011;28584;42.636;23.294;2022-08-04T19:13:24;4.28;;;3.70;;
42944;SDS011;28584;42.636;23.294;2022-08-04T19:15:50;5.18;;;3.60;;
42944;SDS011;28584;42.636;23.294;2022-08-04T19:18:15;4.53;;;3.80;;
42944;SDS011;28584;42.636;23.294;2022-08-04T19:20:41;4.10;;;3.70;;
42944;SDS011;28584;42.636;23.294;2022-08-04T19:23:06;5.05;;;4.32;;
42944;SDS011;28584;42.636;23.294;2022-08-04T19:25:32;4.78;;;3.70;;
42944;SDS011;28584;42.636;23.294;2022-08-04T19:27:58;4.88;;;4.20;;
42944;SDS011;28584;42.636;23.294;2022-08-04T19:30:23;8.07;;;3.80;;
42944;SDS011;28584;42.636;23.294;2022-08-04T19:32:49;6.35;;;3.85;;
42944;SDS011;28584;42.636;23.294;2022-08-04T19:35:14;4.20;;;3.88;;
42944;SDS011;28584;42.636;23.294;2022-08-04T19:37:39;4.15;;;3.70;;
42944;SDS011;28584;42.636;23.294;2022-08-04T19:40:06;4.50;;;3.83;;